createdAt,value
2018-08-12T00:00:44.741Z,16.30
2018-08-12T00:03:12.855Z,16.30
2018-08-12T00:05:40.963Z,16.30
2018-08-12T00:08:09.030Z,16.30
2018-08-12T00:10:37.069Z,16.30
2018-08-12T00:13:05.144Z,16.30
2018-08-12T00:15:33.190Z,16.20
2018-08-12T00:18:01.320Z,16.20
2018-08-12T00:20:29.465Z,16.20
2018-08-12T00:22:57.547Z,16.20
2018-08-12T00:25:25.604Z,16.20
2018-08-12T00:27:53.689Z,16.20
2018-08-12T00:30:21.733Z,16.20
2018-08-12T00:32:49.821Z,16.20
2018-08-12T00:35:18.853Z,16.20
2018-08-12T00:37:46.987Z,16.20
2018-08-12T00:40:15.967Z,16.30
2018-08-12T00:42:44.214Z,16.20
2018-08-12T00:45:15.218Z,16.20
2018-08-12T00:47:43.716Z,16.20
2018-08-12T00:50:12.693Z,16.20
2018-08-12T00:52:40.781Z,16.30
2018-08-12T00:55:10.257Z,16.30
2018-08-12T00:57:38.354Z,16.20
2018-08-12T01:00:07.966Z,16.20
2018-08-12T01:02:36.026Z,16.20
2018-08-12T01:05:04.953Z,16.10
2018-08-12T01:07:33.021Z,16.10
2018-08-12T01:10:01.084Z,16.00
2018-08-12T01:12:29.129Z,16.00
2018-08-12T01:14:57.294Z,16.00
2018-08-12T01:17:25.370Z,15.90
2018-08-12T01:19:53.437Z,15.90
2018-08-12T01:22:21.491Z,15.90
2018-08-12T01:24:49.713Z,16.00
2018-08-12T01:27:17.741Z,16.00
2018-08-12T01:29:45.832Z,16.10
2018-08-12T01:32:13.880Z,16.00
2018-08-12T01:34:41.969Z,16.00
2018-08-12T01:37:10.015Z,16.00
2018-08-12T01:39:38.091Z,16.00
2018-08-12T01:42:06.154Z,15.90
2018-08-12T01:44:34.209Z,16.00
2018-08-12T01:47:02.283Z,15.90
2018-08-12T01:49:30.413Z,15.90
2018-08-12T01:51:58.495Z,15.90
2018-08-12T01:54:26.572Z,15.90
2018-08-12T01:56:54.616Z,15.80
2018-08-12T01:59:22.669Z,15.80
2018-08-12T02:01:50.700Z,15.80
2018-08-12T02:04:18.873Z,15.80
2018-08-12T02:06:47.018Z,15.80
2018-08-12T02:09:15.124Z,15.80
2018-08-12T02:11:43.127Z,15.80
2018-08-12T02:14:11.220Z,15.80
2018-08-12T02:16:39.256Z,15.80
2018-08-12T02:19:07.388Z,15.80
2018-08-12T02:21:35.428Z,15.80
2018-08-12T02:24:03.527Z,15.80
2018-08-12T02:26:31.565Z,15.80
2018-08-12T02:28:59.770Z,15.80
2018-08-12T02:31:27.845Z,15.80
2018-08-12T02:33:55.918Z,15.80
2018-08-12T02:36:23.991Z,15.80
2018-08-12T02:38:52.079Z,15.80
2018-08-12T02:41:20.134Z,15.80
2018-08-12T02:43:48.208Z,15.80
2018-08-12T02:46:16.248Z,15.80
2018-08-12T02:48:44.278Z,15.80
2018-08-12T02:51:12.350Z,15.90
2018-08-12T02:53:40.393Z,15.80
2018-08-12T02:56:08.457Z,15.80
2018-08-12T02:58:36.545Z,15.70
2018-08-12T03:01:04.612Z,15.70
2018-08-12T03:03:32.641Z,15.70
2018-08-12T03:06:00.786Z,15.80
2018-08-12T03:08:28.960Z,15.80
2018-08-12T03:10:56.997Z,15.70
2018-08-12T03:13:25.029Z,15.70
2018-08-12T03:15:53.180Z,15.70
2018-08-12T03:18:21.238Z,15.70
2018-08-12T03:20:49.402Z,15.70
2018-08-12T03:23:17.465Z,15.70
2018-08-12T03:25:45.646Z,15.70
2018-08-12T03:28:13.699Z,15.70
2018-08-12T03:30:41.851Z,15.70
2018-08-12T03:33:09.970Z,15.70
2018-08-12T03:35:38.112Z,15.70
2018-08-12T03:38:06.170Z,15.70
2018-08-12T03:40:34.266Z,15.70
2018-08-12T03:43:02.309Z,15.60
2018-08-12T03:45:30.429Z,15.40
2018-08-12T03:47:58.521Z,15.30
2018-08-12T03:50:26.600Z,15.30
2018-08-12T03:52:54.647Z,15.10
2018-08-12T03:55:22.775Z,15.10
2018-08-12T03:57:50.832Z,15.00
2018-08-12T04:00:19.554Z,15.00
2018-08-12T04:02:48.503Z,14.90
2018-08-12T04:05:17.090Z,14.80
2018-08-12T04:07:45.160Z,14.90
2018-08-12T04:10:13.237Z,14.80
2018-08-12T04:12:41.305Z,14.70
2018-08-12T04:15:10.817Z,14.70
2018-08-12T04:17:38.891Z,14.70
2018-08-12T04:20:07.279Z,14.70
2018-08-12T04:22:35.422Z,14.60
2018-08-12T04:25:03.657Z,14.60
2018-08-12T04:27:31.924Z,14.60
2018-08-12T04:30:00.170Z,14.50
2018-08-12T04:32:28.349Z,14.60
2018-08-12T04:34:56.529Z,14.60
2018-08-12T04:37:24.693Z,14.60
2018-08-12T04:39:52.765Z,14.60
2018-08-12T04:42:21.406Z,14.70
2018-08-12T04:44:50.802Z,14.70
2018-08-12T04:47:18.846Z,14.70
2018-08-12T04:49:47.002Z,14.70
2018-08-12T04:52:15.282Z,14.70
2018-08-12T04:54:43.321Z,14.80
2018-08-12T04:57:11.381Z,14.90
2018-08-12T04:59:39.510Z,15.00
2018-08-12T05:02:07.832Z,15.10
2018-08-12T05:04:36.031Z,15.20
2018-08-12T05:07:04.593Z,15.30
2018-08-12T05:09:33.819Z,15.40
2018-08-12T05:12:01.910Z,15.40
2018-08-12T05:14:29.991Z,15.40
2018-08-12T05:16:58.130Z,15.50
2018-08-12T05:19:26.225Z,15.50
2018-08-12T05:21:54.407Z,15.60
2018-08-12T05:24:22.448Z,15.60
2018-08-12T05:26:50.537Z,15.70
2018-08-12T05:29:19.107Z,15.90
2018-08-12T05:31:47.337Z,15.90
2018-08-12T05:34:15.398Z,16.00
2018-08-12T05:36:43.681Z,16.10
2018-08-12T05:39:13.692Z,16.20
2018-08-12T05:41:42.154Z,16.30
2018-08-12T05:44:10.205Z,16.40
2018-08-12T05:46:38.307Z,16.40
2018-08-12T05:49:06.370Z,16.40
2018-08-12T05:51:34.519Z,16.50
2018-08-12T05:54:02.600Z,16.60
2018-08-12T05:56:31.367Z,16.70
2018-08-12T05:59:00.778Z,16.80
2018-08-12T06:01:29.600Z,16.80
2018-08-12T06:03:58.232Z,16.80
2018-08-12T06:06:26.362Z,16.90
2018-08-12T06:08:54.480Z,17.10
2018-08-12T06:11:22.497Z,17.20
2018-08-12T06:13:50.569Z,17.30
2018-08-12T06:16:18.706Z,17.40
2018-08-12T06:18:46.856Z,17.50
2018-08-12T06:21:15.671Z,17.60
2018-08-12T06:23:43.717Z,17.60
2018-08-12T06:26:12.041Z,17.70
2018-08-12T06:28:40.138Z,17.80
2018-08-12T06:31:08.218Z,18.00
2018-08-12T06:33:36.323Z,17.90
2018-08-12T06:36:04.563Z,17.90
2018-08-12T06:38:32.637Z,18.10
2018-08-12T06:41:00.705Z,18.20
2018-08-12T06:43:28.780Z,18.20
2018-08-12T06:45:56.838Z,18.30
2018-08-12T06:48:25.026Z,18.30
2018-08-12T06:50:53.105Z,18.30
2018-08-12T06:53:21.302Z,18.40
2018-08-12T06:55:49.325Z,18.40
2018-08-12T06:58:17.419Z,18.50
2018-08-12T07:00:46.514Z,18.60
2018-08-12T07:03:14.858Z,18.60
2018-08-12T07:05:42.969Z,18.70
2018-08-12T07:08:11.149Z,18.70
2018-08-12T07:10:39.198Z,18.80
2018-08-12T07:13:07.311Z,18.90
2018-08-12T07:15:35.378Z,18.90
2018-08-12T07:18:03.517Z,19.00
2018-08-12T07:20:31.590Z,19.10
2018-08-12T07:22:59.680Z,19.20
2018-08-12T07:25:27.719Z,19.20
2018-08-12T07:27:55.783Z,19.30
2018-08-12T07:30:23.993Z,19.40
2018-08-12T07:32:52.217Z,19.40
2018-08-12T07:35:20.273Z,19.50
2018-08-12T07:37:48.352Z,19.60
2018-08-12T07:40:18.050Z,19.60
2018-08-12T07:42:47.613Z,19.70
2018-08-12T07:45:15.653Z,19.60
2018-08-12T07:47:44.045Z,19.70
2018-08-12T07:50:12.385Z,19.80
2018-08-12T07:52:41.812Z,19.90
2018-08-12T07:55:10.674Z,19.90
2018-08-12T07:57:38.891Z,20.00
2018-08-12T08:00:08.606Z,20.10
2018-08-12T08:02:36.763Z,20.30
2018-08-12T08:05:05.116Z,20.40
2018-08-12T08:07:33.285Z,20.40
2018-08-12T08:10:01.373Z,20.50
2018-08-12T08:12:29.528Z,20.60
2018-08-12T08:14:57.666Z,20.60
2018-08-12T08:17:25.686Z,20.70
2018-08-12T08:19:53.985Z,20.80
2018-08-12T08:22:21.939Z,20.70
2018-08-12T08:24:50.095Z,20.80
2018-08-12T08:27:18.165Z,20.90
2018-08-12T08:29:46.246Z,20.90
2018-08-12T08:32:14.328Z,21.00
2018-08-12T08:34:42.510Z,21.10
2018-08-12T08:37:10.542Z,21.10
2018-08-12T08:39:38.627Z,21.20
2018-08-12T08:42:06.674Z,21.30
2018-08-12T08:44:34.745Z,21.40
2018-08-12T08:47:02.875Z,21.50
2018-08-12T08:49:30.934Z,21.60
2018-08-12T08:51:58.998Z,21.60
2018-08-12T08:54:27.055Z,21.60
2018-08-12T08:56:55.089Z,21.70
2018-08-12T08:59:23.223Z,21.90
2018-08-12T09:01:51.297Z,22.00
2018-08-12T09:04:19.383Z,22.00
2018-08-12T09:06:47.425Z,22.00
2018-08-12T09:09:16.391Z,22.10
2018-08-12T09:11:44.539Z,22.30
2018-08-12T09:14:12.674Z,22.50
2018-08-12T09:16:41.051Z,22.60
2018-08-12T09:19:09.122Z,22.70
2018-08-12T09:21:37.310Z,22.80
2018-08-12T09:24:05.623Z,22.80
2018-08-12T09:26:33.633Z,22.80
2018-08-12T09:29:01.718Z,22.70
2018-08-12T09:31:30.964Z,22.60
2018-08-12T09:33:59.239Z,22.60
2018-08-12T09:36:27.278Z,22.70
2018-08-12T09:38:55.554Z,22.80
2018-08-12T09:41:23.607Z,23.00
2018-08-12T09:43:51.678Z,23.20
2018-08-12T09:46:19.873Z,23.20
2018-08-12T09:48:47.956Z,23.30
2018-08-12T09:51:16.011Z,23.30
2018-08-12T09:53:44.094Z,23.40
2018-08-12T09:56:12.195Z,23.40
2018-08-12T09:58:40.274Z,23.50
2018-08-12T10:01:08.338Z,23.60
2018-08-12T10:03:36.394Z,23.70
2018-08-12T10:06:04.562Z,23.80
2018-08-12T10:08:32.634Z,23.70
2018-08-12T10:11:00.802Z,23.90
2018-08-12T10:13:28.850Z,23.90
2018-08-12T10:15:57.018Z,23.80
2018-08-12T10:18:25.062Z,23.90
2018-08-12T10:20:53.146Z,23.80
2018-08-12T10:23:21.196Z,24.00
2018-08-12T10:25:49.334Z,24.10
2018-08-12T10:28:17.382Z,24.30
2018-08-12T10:30:45.457Z,24.40
2018-08-12T10:33:13.494Z,24.20
2018-08-12T10:35:41.634Z,24.40
2018-08-12T10:38:09.691Z,24.50
2018-08-12T10:40:37.880Z,24.50
2018-08-12T10:43:06.048Z,24.80
2018-08-12T10:45:34.110Z,24.70
2018-08-12T10:48:02.191Z,25.00
2018-08-12T10:50:30.237Z,25.00
2018-08-12T10:52:58.356Z,25.10
2018-08-12T10:55:26.402Z,25.10
2018-08-12T10:57:54.466Z,25.10
2018-08-12T11:00:24.789Z,25.10
2018-08-12T11:02:53.098Z,25.10
2018-08-12T11:05:21.225Z,25.10
2018-08-12T11:07:51.481Z,25.10
2018-08-12T11:10:19.594Z,25.40
2018-08-12T11:12:47.720Z,25.50
2018-08-12T11:15:15.785Z,25.50
2018-08-12T11:17:43.827Z,25.50
2018-08-12T11:20:11.898Z,25.60
2018-08-12T11:22:39.983Z,25.80
2018-08-12T11:25:08.832Z,26.00
2018-08-12T11:27:37.087Z,26.00
2018-08-12T11:30:06.588Z,26.10
2018-08-12T11:32:34.630Z,26.10
2018-08-12T11:35:02.827Z,26.20
2018-08-12T11:37:30.865Z,26.50
2018-08-12T11:39:58.973Z,26.30
2018-08-12T11:42:27.014Z,26.10
2018-08-12T11:44:55.120Z,26.00
2018-08-12T11:47:23.250Z,26.00
2018-08-12T11:49:51.282Z,26.10
2018-08-12T11:52:19.323Z,26.20
2018-08-12T11:54:47.660Z,26.40
2018-08-12T11:57:15.718Z,26.50
2018-08-12T11:59:43.974Z,26.50
2018-08-12T12:02:12.062Z,26.60
2018-08-12T12:04:40.245Z,26.80
2018-08-12T12:07:08.613Z,26.80
2018-08-12T12:09:36.678Z,26.70
2018-08-12T12:12:04.952Z,26.70
2018-08-12T12:14:33.159Z,26.90
2018-08-12T12:17:01.274Z,26.80
2018-08-12T12:19:29.389Z,27.00
2018-08-12T12:21:57.582Z,27.70
2018-08-12T12:24:26.037Z,28.50
2018-08-12T12:26:54.163Z,29.10
2018-08-12T12:29:22.253Z,30.20
2018-08-12T12:31:50.380Z,32.20
2018-08-12T12:34:18.453Z,32.20
2018-08-12T12:36:46.615Z,33.80
2018-08-12T12:39:14.670Z,34.90
2018-08-12T12:41:42.773Z,36.00
2018-08-12T12:44:10.905Z,37.10
2018-08-12T12:46:39.087Z,38.80
2018-08-12T12:49:07.193Z,38.90
2018-08-12T12:51:35.266Z,39.10
2018-08-12T12:54:03.329Z,38.80
2018-08-12T12:56:31.536Z,39.50
2018-08-12T12:58:59.541Z,38.80
2018-08-12T13:01:27.621Z,38.30
2018-08-12T13:03:55.675Z,39.30
2018-08-12T13:06:23.775Z,38.20
2018-08-12T13:08:51.842Z,38.70
2018-08-12T13:11:19.935Z,39.50
2018-08-12T13:13:48.034Z,39.80
2018-08-12T13:16:16.125Z,40.60
2018-08-12T13:18:44.237Z,39.10
2018-08-12T13:21:12.294Z,40.30
2018-08-12T13:23:40.321Z,41.50
2018-08-12T13:26:08.445Z,41.90
2018-08-12T13:28:36.489Z,41.10
2018-08-12T13:31:04.583Z,41.70
2018-08-12T13:33:32.615Z,41.80
2018-08-12T13:36:00.779Z,41.60
2018-08-12T13:38:28.844Z,42.10
2018-08-12T13:40:56.931Z,42.40
2018-08-12T13:43:25.015Z,42.60
2018-08-12T13:45:53.081Z,42.80
2018-08-12T13:48:21.151Z,42.20
2018-08-12T13:50:49.198Z,41.50
2018-08-12T13:53:17.404Z,40.40
2018-08-12T13:55:45.394Z,38.40
2018-08-12T13:58:13.638Z,39.00
2018-08-12T14:00:41.697Z,39.60
2018-08-12T14:03:09.792Z,39.50
2018-08-12T14:05:37.857Z,39.40
2018-08-12T14:08:05.973Z,40.00
2018-08-12T14:10:34.006Z,41.20
2018-08-12T14:13:02.134Z,41.00
2018-08-12T14:15:30.169Z,40.80
2018-08-12T14:17:58.341Z,41.00
2018-08-12T14:20:26.466Z,42.00
2018-08-12T14:22:54.564Z,41.80
2018-08-12T14:25:22.681Z,41.40
2018-08-12T14:27:50.775Z,40.90
2018-08-12T14:30:20.234Z,40.30
2018-08-12T14:32:48.972Z,39.60
2018-08-12T14:35:17.020Z,40.00
2018-08-12T14:37:45.157Z,40.10
2018-08-12T14:40:13.553Z,40.60
2018-08-12T14:42:41.806Z,39.90
2018-08-12T14:45:11.624Z,40.00
2018-08-12T14:47:40.299Z,39.90
2018-08-12T14:50:10.325Z,40.40
2018-08-12T14:52:38.502Z,40.00
2018-08-12T14:55:06.943Z,40.00
2018-08-12T14:57:35.089Z,40.60
2018-08-12T15:00:03.335Z,41.30
2018-08-12T15:02:31.453Z,40.70
2018-08-12T15:04:59.487Z,39.20
2018-08-12T15:07:27.572Z,39.20
2018-08-12T15:09:55.609Z,38.90
2018-08-12T15:12:23.829Z,39.70
2018-08-12T15:14:51.884Z,39.90
2018-08-12T15:17:20.026Z,39.00
2018-08-12T15:19:48.131Z,38.50
2018-08-12T15:22:16.242Z,38.70
2018-08-12T15:24:44.253Z,38.90
2018-08-12T15:27:12.318Z,39.20
2018-08-12T15:29:40.374Z,39.00
2018-08-12T15:32:08.492Z,39.10
2018-08-12T15:34:36.520Z,39.00
2018-08-12T15:37:04.583Z,39.10
2018-08-12T15:39:32.640Z,39.30
2018-08-12T15:42:00.710Z,39.10
2018-08-12T15:44:28.901Z,39.40
2018-08-12T15:46:56.938Z,39.70
2018-08-12T15:49:25.087Z,40.60
2018-08-12T15:51:53.138Z,40.40
2018-08-12T15:54:21.198Z,40.20
2018-08-12T15:56:49.725Z,40.20
2018-08-12T15:59:17.970Z,40.80
2018-08-12T16:01:45.994Z,41.20
2018-08-12T16:04:14.085Z,40.80
2018-08-12T16:06:42.113Z,40.50
2018-08-12T16:09:11.390Z,40.50
2018-08-12T16:11:39.463Z,40.60
2018-08-12T16:14:07.562Z,39.70
2018-08-12T16:16:36.382Z,39.30
2018-08-12T16:19:05.288Z,39.90
2018-08-12T16:21:33.518Z,40.20
2018-08-12T16:24:01.742Z,39.70
2018-08-12T16:26:29.773Z,38.40
2018-08-12T16:28:58.031Z,39.20
2018-08-12T16:31:26.089Z,39.10
2018-08-12T16:33:54.232Z,39.40
2018-08-12T16:36:22.265Z,38.30
2018-08-12T16:38:50.351Z,37.70
2018-08-12T16:41:18.433Z,37.40
2018-08-12T16:43:46.498Z,36.80
2018-08-12T16:46:14.541Z,36.20
2018-08-12T16:48:42.647Z,35.40
2018-08-12T16:51:10.769Z,35.20
2018-08-12T16:53:38.811Z,35.20
2018-08-12T16:56:06.881Z,35.20
2018-08-12T16:58:34.948Z,34.60
2018-08-12T17:01:02.993Z,34.10
2018-08-12T17:03:31.174Z,34.20
2018-08-12T17:05:59.236Z,33.70
2018-08-12T17:08:27.318Z,34.00
2018-08-12T17:10:55.346Z,33.90
2018-08-12T17:13:23.417Z,33.70
2018-08-12T17:15:51.446Z,33.80
2018-08-12T17:18:19.638Z,33.90
2018-08-12T17:20:47.698Z,33.60
2018-08-12T17:23:15.810Z,33.50
2018-08-12T17:25:43.930Z,33.30
2018-08-12T17:28:12.029Z,33.00
2018-08-12T17:30:40.118Z,32.90
2018-08-12T17:33:08.206Z,32.80
2018-08-12T17:35:36.262Z,32.10
2018-08-12T17:38:04.417Z,31.70
2018-08-12T17:40:32.509Z,31.50
2018-08-12T17:43:00.564Z,31.00
2018-08-12T17:45:28.637Z,30.70
2018-08-12T17:47:56.683Z,30.50
2018-08-12T17:50:24.968Z,30.00
2018-08-12T17:52:53.511Z,29.80
2018-08-12T17:55:21.646Z,29.40
2018-08-12T17:57:49.693Z,29.10
2018-08-12T18:00:17.825Z,28.70
2018-08-12T18:02:45.883Z,28.40
2018-08-12T18:05:13.960Z,28.20
2018-08-12T18:07:42.450Z,28.10
2018-08-12T18:10:10.509Z,28.00
2018-08-12T18:12:38.593Z,27.90
2018-08-12T18:15:07.684Z,27.80
2018-08-12T18:17:35.747Z,27.60
2018-08-12T18:20:04.349Z,27.50
2018-08-12T18:22:32.490Z,27.30
2018-08-12T18:25:00.591Z,27.10
2018-08-12T18:27:28.637Z,26.90
2018-08-12T18:29:56.911Z,26.80
2018-08-12T18:32:25.136Z,26.60
2018-08-12T18:34:53.256Z,26.50
2018-08-12T18:37:21.442Z,26.30
2018-08-12T18:39:49.502Z,26.20
2018-08-12T18:42:17.679Z,26.00
2018-08-12T18:44:45.729Z,25.90
2018-08-12T18:47:13.867Z,25.70
2018-08-12T18:49:41.958Z,25.60
2018-08-12T18:52:10.174Z,25.50
2018-08-12T18:54:38.281Z,25.40
2018-08-12T18:57:06.325Z,25.30
2018-08-12T18:59:34.397Z,25.20
2018-08-12T19:02:02.426Z,25.10
2018-08-12T19:04:30.500Z,25.00
2018-08-12T19:06:58.613Z,25.00
2018-08-12T19:09:26.672Z,24.90
2018-08-12T19:11:54.733Z,24.80
2018-08-12T19:14:22.792Z,24.80
2018-08-12T19:16:50.867Z,24.70
2018-08-12T19:19:19.085Z,24.60
2018-08-12T19:21:47.159Z,24.50
2018-08-12T19:24:15.334Z,24.30
2018-08-12T19:26:43.398Z,24.20
2018-08-12T19:29:11.677Z,24.10
2018-08-12T19:31:40.169Z,24.00
2018-08-12T19:34:08.263Z,23.90
2018-08-12T19:36:36.535Z,23.80
2018-08-12T19:39:06.770Z,23.70
2018-08-12T19:41:35.065Z,23.60
2018-08-12T19:44:03.472Z,23.50
2018-08-12T19:46:31.599Z,23.50
2018-08-12T19:49:00.310Z,23.40
2018-08-12T19:51:28.540Z,23.30
2018-08-12T19:53:56.945Z,23.20
2018-08-12T19:56:25.069Z,23.20
2018-08-12T19:58:53.704Z,23.10
2018-08-12T20:01:21.852Z,23.00
2018-08-12T20:03:50.228Z,22.90
2018-08-12T20:06:18.622Z,22.90
2018-08-12T20:08:46.744Z,22.80
2018-08-12T20:11:15.034Z,22.70
2018-08-12T20:13:43.957Z,22.70
2018-08-12T20:16:11.994Z,22.60
2018-08-12T20:18:40.191Z,22.50
2018-08-12T20:21:08.213Z,22.40
2018-08-12T20:23:36.391Z,22.40
2018-08-12T20:26:04.421Z,22.30
2018-08-12T20:28:32.696Z,22.30
2018-08-12T20:31:00.824Z,22.30
2018-08-12T20:33:28.989Z,22.20
2018-08-12T20:35:57.110Z,22.10
2018-08-12T20:38:25.313Z,22.10
2018-08-12T20:40:53.426Z,22.00
2018-08-12T20:43:21.764Z,22.00
2018-08-12T20:45:49.951Z,21.90
2018-08-12T20:48:18.423Z,21.90
2018-08-12T20:50:46.443Z,21.90
2018-08-12T20:53:14.513Z,21.80
2018-08-12T20:55:42.569Z,21.80
2018-08-12T20:58:10.696Z,21.70
2018-08-12T21:00:38.809Z,21.60
2018-08-12T21:03:06.853Z,21.60
2018-08-12T21:05:34.956Z,21.50
2018-08-12T21:08:03.022Z,21.50
2018-08-12T21:10:31.094Z,21.40
2018-08-12T21:12:59.150Z,21.30
2018-08-12T21:15:27.418Z,21.30
2018-08-12T21:17:55.573Z,21.10
2018-08-12T21:20:23.734Z,21.10
2018-08-12T21:22:51.801Z,21.10
2018-08-12T21:25:19.901Z,21.00
2018-08-12T21:27:48.050Z,21.00
2018-08-12T21:30:16.198Z,21.00
2018-08-12T21:32:44.230Z,20.90
2018-08-12T21:35:12.574Z,20.90
2018-08-12T21:37:40.757Z,20.80
2018-08-12T21:40:08.933Z,20.80
2018-08-12T21:42:37.019Z,20.70
2018-08-12T21:45:05.111Z,20.70
2018-08-12T21:47:33.115Z,20.70
2018-08-12T21:50:01.222Z,20.70
2018-08-12T21:52:29.277Z,20.70
2018-08-12T21:54:57.339Z,20.70
2018-08-12T21:57:25.373Z,20.60
2018-08-12T21:59:53.514Z,20.60
2018-08-12T22:02:21.566Z,20.60
2018-08-12T22:04:49.648Z,20.60
2018-08-12T22:07:17.677Z,20.50
2018-08-12T22:09:45.765Z,20.50
2018-08-12T22:12:13.894Z,20.40
2018-08-12T22:14:42.042Z,20.40
2018-08-12T22:17:10.077Z,20.40
2018-08-12T22:19:38.193Z,20.40
2018-08-12T22:22:06.281Z,20.40
2018-08-12T22:24:34.483Z,20.40
2018-08-12T22:27:02.498Z,20.40
2018-08-12T22:29:30.574Z,20.30
2018-08-12T22:31:58.662Z,20.30
2018-08-12T22:34:26.822Z,20.20
2018-08-12T22:36:54.850Z,20.20
2018-08-12T22:39:22.930Z,20.10
2018-08-12T22:41:50.986Z,20.10
2018-08-12T22:44:19.121Z,20.00
2018-08-12T22:46:47.170Z,19.90
2018-08-12T22:49:15.270Z,19.90
2018-08-12T22:51:43.346Z,19.90
2018-08-12T22:54:11.519Z,19.90
2018-08-12T22:56:39.589Z,19.90
2018-08-12T22:59:07.659Z,19.90
2018-08-12T23:01:36.123Z,19.80
2018-08-12T23:04:04.478Z,19.80
2018-08-12T23:06:32.558Z,19.70
2018-08-12T23:09:00.765Z,19.70
2018-08-12T23:11:28.773Z,19.70
2018-08-12T23:13:56.838Z,19.70
2018-08-12T23:16:30.741Z,19.70
2018-08-12T23:18:58.806Z,19.70
2018-08-12T23:21:26.850Z,19.70
2018-08-12T23:23:54.938Z,19.70
2018-08-12T23:26:24.217Z,19.70
2018-08-12T23:28:52.278Z,19.70
2018-08-12T23:31:20.718Z,19.70
2018-08-12T23:33:48.974Z,19.70
2018-08-12T23:36:17.010Z,19.60
2018-08-12T23:38:45.053Z,19.60
2018-08-12T23:41:13.340Z,19.60
2018-08-12T23:43:41.398Z,19.60
2018-08-12T23:46:09.966Z,19.60
2018-08-12T23:48:38.117Z,19.50
2018-08-12T23:51:06.267Z,19.50
2018-08-12T23:53:34.313Z,19.40
2018-08-12T23:56:02.438Z,19.40
2018-08-12T23:58:30.458Z,19.40
